Terminal Aerodrome Forecast
Issued by NWS Quad Cities IA IL

Home | Current Version | Previous Version | Text Only | Print | Product List | Glossary On
Versions: 1 2 3 4 5 6 7 8 9 10 11 12 13 14 15 16
000
FTUS43 KDVN 300500
TAFDBQ
TAF
KDBQ 300520Z 3006/3106 03007KT P6SM SCT080 BKN100
     FM300700 34004KT P6SM BKN080
      TEMPO 3010/3013 5SM BR SCT100
     FM301500 32007KT P6SM SCT050 BKN080 PROB30 3021/3101 -SHRA
      BKN040=

USA.gov is the U.S. government's official web portal to all federal, state and local government web resources and services.